createdAt,value
2023-04-15T00:00:00.882Z,6.8
2023-04-15T00:01:01.466Z,6.8
2023-04-15T00:02:01.180Z,6.9
2023-04-15T00:03:01.893Z,7
2023-04-15T00:04:01.393Z,7.2
2023-04-15T00:05:00.890Z,7.1
2023-04-15T00:06:01.494Z,7.2
2023-04-15T00:07:01.092Z,7.2
2023-04-15T00:08:01.700Z,7.2
2023-04-15T00:09:01.486Z,7.2
2023-04-15T00:10:00.874Z,7.3
2023-04-15T00:11:01.436Z,7.3
2023-04-15T00:12:01.040Z,7.4
2023-04-15T00:13:01.642Z,7.4
2023-04-15T00:14:01.231Z,7.6
2023-04-15T00:15:01.846Z,7.6
2023-04-15T00:16:01.480Z,7.6
2023-04-15T00:17:01.144Z,7.5
2023-04-15T00:18:01.630Z,7.5
2023-04-15T00:19:01.469Z,7.5
2023-04-15T00:20:01.825Z,7.5
2023-04-15T00:21:01.408Z,7.5
2023-04-15T00:22:01.029Z,7.4
2023-04-15T00:23:01.580Z,7.5
2023-04-15T00:24:01.183Z,7.5
2023-04-15T00:25:01.790Z,7.5
2023-04-15T00:26:01.395Z,7.4
2023-04-15T00:27:00.970Z,7.4
2023-04-15T00:28:01.549Z,7.3
2023-04-15T00:29:01.422Z,7.3
2023-04-15T00:30:01.760Z,7.3
2023-04-15T00:31:01.422Z,7.3
2023-04-15T00:32:00.935Z,7.2
2023-04-15T00:33:01.570Z,7.1
2023-04-15T00:34:01.179Z,7.1
2023-04-15T00:35:01.786Z,7
2023-04-15T00:36:01.370Z,6.9
2023-04-15T00:37:00.964Z,6.9
2023-04-15T00:38:01.562Z,6.9
2023-04-15T00:39:01.247Z,7
2023-04-15T00:40:01.777Z,7
2023-04-15T00:41:01.372Z,7
2023-04-15T00:42:00.956Z,7
2023-04-15T00:43:01.535Z,7
2023-04-15T00:44:01.128Z,7.1
2023-04-15T00:45:01.741Z,7
2023-04-15T00:46:01.403Z,7
2023-04-15T00:47:00.914Z,7
2023-04-15T00:48:01.505Z,7
2023-04-15T00:49:01.196Z,7
2023-04-15T00:50:01.734Z,6.9
2023-04-15T00:51:01.339Z,7
2023-04-15T00:52:00.938Z,6.9
2023-04-15T00:53:01.512Z,6.9
2023-04-15T00:54:01.156Z,6.9
2023-04-15T00:55:01.785Z,6.8
2023-04-15T00:56:01.362Z,6.8
2023-04-15T00:57:00.953Z,6.8
2023-04-15T00:58:01.552Z,6.8
2023-04-15T00:59:01.309Z,6.8
2023-04-15T01:00:01.756Z,6.8
2023-04-15T01:01:01.342Z,6.8
2023-04-15T01:02:01.037Z,6.7
2023-04-15T01:03:01.638Z,6.7
2023-04-15T01:04:01.248Z,6.7
2023-04-15T01:05:01.784Z,6.7
2023-04-15T01:06:03.553Z,6.6
2023-04-15T01:07:00.926Z,6.5
2023-04-15T01:08:01.519Z,6.6
2023-04-15T01:09:01.211Z,6.6
2023-04-15T01:10:01.743Z,6.5
2023-04-15T01:11:01.347Z,6.3
2023-04-15T01:12:00.920Z,6.4
2023-04-15T01:13:01.495Z,6.4
2023-04-15T01:14:01.102Z,6.4
2023-04-15T01:15:01.703Z,6.4
2023-04-15T01:16:01.345Z,6.5
2023-04-15T01:17:00.905Z,6.5
2023-04-15T01:18:01.571Z,6.5
2023-04-15T01:19:01.326Z,6.5
2023-04-15T01:20:01.810Z,6.4
2023-04-15T01:21:01.377Z,6.5
2023-04-15T01:22:00.957Z,6.5
2023-04-15T01:23:01.533Z,6.5
2023-04-15T01:24:01.157Z,6.5
2023-04-15T01:25:01.716Z,6.7
2023-04-15T01:26:01.334Z,6.6
2023-04-15T01:27:00.896Z,6.7
2023-04-15T01:28:01.510Z,6.6
2023-04-15T01:29:01.236Z,6.5
2023-04-15T01:30:01.690Z,6.5
2023-04-15T01:31:01.513Z,6.4
2023-04-15T01:32:00.876Z,6.4
2023-04-15T01:33:01.478Z,6.4
2023-04-15T01:34:01.092Z,6.3
2023-04-15T01:35:01.702Z,6.3
2023-04-15T01:36:01.350Z,6.3
2023-04-15T01:37:00.894Z,6.3
2023-04-15T01:38:01.472Z,6.3
2023-04-15T01:39:01.226Z,6.2
2023-04-15T01:40:01.664Z,6.2
2023-04-15T01:41:01.274Z,6.1
2023-04-15T01:42:01.866Z,6.2
2023-04-15T01:43:01.455Z,6.1
2023-04-15T01:44:01.041Z,6.1
2023-04-15T01:45:01.619Z,6
2023-04-15T01:46:01.241Z,6.1
2023-04-15T01:47:01.849Z,5.8
2023-04-15T01:48:01.578Z,5.8
2023-04-15T01:49:01.237Z,5.8
2023-04-15T01:50:01.642Z,5.5
2023-04-15T01:51:01.260Z,5.6
2023-04-15T01:52:01.851Z,5.6
2023-04-15T01:53:01.447Z,5.7
2023-04-15T01:54:01.037Z,5.8
2023-04-15T01:55:01.634Z,5.8
2023-04-15T01:56:01.256Z,5.8
2023-04-15T01:57:01.821Z,5.8
2023-04-15T01:58:01.434Z,5.9
2023-04-15T01:59:01.226Z,5.9
2023-04-15T02:00:01.602Z,5.8
2023-04-15T02:01:01.254Z,5.8
2023-04-15T02:02:01.795Z,5.7
2023-04-15T02:03:00.975Z,5.7
2023-04-15T02:04:01.709Z,5.7
2023-04-15T02:05:01.259Z,5.7
2023-04-15T02:06:01.855Z,5.7
2023-04-15T02:07:01.577Z,5.7
2023-04-15T02:08:01.067Z,5.8
2023-04-15T02:09:01.847Z,5.8
2023-04-15T02:10:01.359Z,5.8
2023-04-15T02:11:00.894Z,5.8
2023-04-15T02:12:01.484Z,5.8
2023-04-15T02:13:01.071Z,5.8
2023-04-15T02:14:01.723Z,5.8
2023-04-15T02:15:01.323Z,5.8
2023-04-15T02:16:00.905Z,5.5
2023-04-15T02:17:01.492Z,5.5
2023-04-15T02:18:01.151Z,5.4
2023-04-15T02:19:01.812Z,5.4
2023-04-15T02:20:01.333Z,5.4
2023-04-15T02:21:00.908Z,5.4
2023-04-15T02:22:01.513Z,5.4
2023-04-15T02:23:01.126Z,5.6
2023-04-15T02:24:01.688Z,5.5
2023-04-15T02:25:01.280Z,5.6
2023-04-15T02:26:00.864Z,5.7
2023-04-15T02:27:01.459Z,5.6
2023-04-15T02:28:01.086Z,5.4
2023-04-15T02:29:01.802Z,5.4
2023-04-15T02:30:01.353Z,5.4
2023-04-15T02:31:00.939Z,5.4
2023-04-15T02:32:01.505Z,5.3
2023-04-15T02:33:01.166Z,5.4
2023-04-15T02:34:01.760Z,5.4
2023-04-15T02:35:01.400Z,5.4
2023-04-15T02:36:00.976Z,5.4
2023-04-15T02:37:01.618Z,5.3
2023-04-15T02:38:01.183Z,5.3
2023-04-15T02:39:02.034Z,5.2
2023-04-15T02:40:01.418Z,4.8
2023-04-15T02:41:01.007Z,4.8
2023-04-15T02:42:01.658Z,4.9
2023-04-15T02:43:01.255Z,5.1
2023-04-15T02:44:01.855Z,5.2
2023-04-15T02:45:01.507Z,4.9
2023-04-15T02:46:01.125Z,4.8
2023-04-15T02:47:01.669Z,4.8
2023-04-15T02:48:01.274Z,4.9
2023-04-15T02:49:01.908Z,4.9
2023-04-15T02:50:01.629Z,5
2023-04-15T02:51:01.097Z,5
2023-04-15T02:52:01.677Z,4.9
2023-04-15T02:53:01.514Z,4.8
2023-04-15T02:54:01.848Z,4.8
2023-04-15T02:55:01.464Z,4.9
2023-04-15T02:56:01.060Z,5
2023-04-15T02:57:01.652Z,5.1
2023-04-15T02:58:01.259Z,5
2023-04-15T02:59:02.051Z,4.8
2023-04-15T03:00:01.809Z,4.6
2023-04-15T03:01:01.093Z,4.7
2023-04-15T03:02:01.741Z,4.8
2023-04-15T03:03:01.387Z,4.8
2023-04-15T03:04:00.991Z,4.8
2023-04-15T03:05:01.558Z,4.9
2023-04-15T03:06:01.144Z,4.9
2023-04-15T03:07:01.744Z,4.9
2023-04-15T03:08:01.446Z,5
2023-04-15T03:09:01.052Z,5
2023-04-15T03:10:01.515Z,5.1
2023-04-15T03:11:01.118Z,4.9
2023-04-15T03:12:01.721Z,4.8
2023-04-15T03:13:01.355Z,4.6
2023-04-15T03:14:00.966Z,4.5
2023-04-15T03:15:01.552Z,4.5
2023-04-15T03:16:01.214Z,4.6
2023-04-15T03:17:01.766Z,4.7
2023-04-15T03:18:01.423Z,4.7
2023-04-15T03:19:01.267Z,4.7
2023-04-15T03:20:01.086Z,4.7
2023-04-15T03:21:01.695Z,4.5
2023-04-15T03:22:01.285Z,4.6
2023-04-15T03:23:00.891Z,4.7
2023-04-15T03:24:01.507Z,4.8
2023-04-15T03:25:01.100Z,4.8
2023-04-15T03:26:01.684Z,4.7
2023-04-15T03:27:01.273Z,4.7
2023-04-15T03:28:00.880Z,4.7
2023-04-15T03:29:01.662Z,4.7
2023-04-15T03:30:01.088Z,4.6
2023-04-15T03:31:01.679Z,4.6
2023-04-15T03:32:01.293Z,4.6
2023-04-15T03:33:00.926Z,4.7
2023-04-15T03:34:01.526Z,4.7
2023-04-15T03:35:01.102Z,4.7
2023-04-15T03:36:01.693Z,4.6
2023-04-15T03:37:01.289Z,4.7
2023-04-15T03:38:00.876Z,4.7
2023-04-15T03:39:01.601Z,4.6
2023-04-15T03:40:01.077Z,4.7
2023-04-15T03:41:01.675Z,4.7
2023-04-15T03:42:01.271Z,4.7
2023-04-15T03:43:01.844Z,4.6
2023-04-15T03:44:01.433Z,4.6
2023-04-15T03:45:01.023Z,4.7
2023-04-15T03:46:02.051Z,4.6
2023-04-15T03:47:01.250Z,4.6
2023-04-15T03:49:01.487Z,4.6
2023-04-15T03:50:01.082Z,4.5
2023-04-15T03:51:01.655Z,4.6
2023-04-15T03:52:01.248Z,4.6
2023-04-15T03:53:01.818Z,4.6
2023-04-15T03:54:01.413Z,4.6
2023-04-15T03:55:01.011Z,4.5
2023-04-15T03:56:01.647Z,4.5
2023-04-15T03:57:01.261Z,4.4
2023-04-15T03:58:01.825Z,4.4
2023-04-15T03:59:01.578Z,4.4
2023-04-15T04:00:01.070Z,4.3
2023-04-15T04:01:01.651Z,4.3
2023-04-15T04:02:01.302Z,4.3
2023-04-15T04:03:01.971Z,4.3
2023-04-15T04:04:01.802Z,4.3
2023-04-15T04:05:01.087Z,4.3
2023-04-15T04:06:01.649Z,4.3
2023-04-15T04:07:01.238Z,4.3
2023-04-15T04:08:01.824Z,4.3
2023-04-15T04:09:01.527Z,4.3
2023-04-15T04:10:01.061Z,4.3
2023-04-15T04:11:01.683Z,4.3
2023-04-15T04:12:01.274Z,4.3
2023-04-15T04:13:00.857Z,4.3
2023-04-15T04:14:01.450Z,4.2
2023-04-15T04:15:01.037Z,4.2
2023-04-15T04:16:01.768Z,4.2
2023-04-15T04:17:01.326Z,4.2
2023-04-15T04:18:00.897Z,4.2
2023-04-15T04:19:01.568Z,4.2
2023-04-15T04:20:01.087Z,4.1
2023-04-15T04:21:01.687Z,4.1
2023-04-15T04:22:01.334Z,4.1
2023-04-15T04:23:00.907Z,4.1
2023-04-15T04:24:01.470Z,4.1
2023-04-15T04:25:01.063Z,4.1
2023-04-15T04:26:01.643Z,4.1
2023-04-15T04:27:01.252Z,4.1
2023-04-15T04:28:01.838Z,4.1
2023-04-15T04:29:01.533Z,4
2023-04-15T04:30:01.053Z,4
2023-04-15T04:31:01.638Z,4
2023-04-15T04:32:01.276Z,4
2023-04-15T04:33:01.885Z,4
2023-04-15T04:34:01.499Z,4
2023-04-15T04:35:01.069Z,4
2023-04-15T04:36:01.631Z,4
2023-04-15T04:37:01.239Z,3.9
2023-04-15T04:38:01.865Z,3.9
2023-04-15T04:39:01.601Z,3.9
2023-04-15T04:40:01.082Z,3.9
2023-04-15T04:41:01.656Z,3.8
2023-04-15T04:42:01.267Z,3.8
2023-04-15T04:43:01.847Z,3.8
2023-04-15T04:44:01.459Z,3.7
2023-04-15T04:45:01.083Z,3.7
2023-04-15T04:46:01.656Z,3.7
2023-04-15T04:47:01.267Z,3.7
2023-04-15T04:48:01.857Z,3.8
2023-04-15T04:49:01.785Z,3.8
2023-04-15T04:50:01.083Z,3.8
2023-04-15T04:51:01.652Z,3.8
2023-04-15T04:52:01.274Z,3.8
2023-04-15T04:53:01.849Z,3.8
2023-04-15T04:54:03.530Z,3.9
2023-04-15T04:55:01.000Z,3.9
2023-04-15T04:56:01.589Z,3.8
2023-04-15T04:57:01.183Z,3.9
2023-04-15T04:58:01.792Z,4
2023-04-15T04:59:01.493Z,4
2023-04-15T05:00:01.003Z,3.9
2023-04-15T05:01:01.614Z,3.9
2023-04-15T05:02:01.275Z,3.8
2023-04-15T05:03:01.983Z,3.9
2023-04-15T05:04:01.761Z,3.8
2023-04-15T05:05:01.108Z,3.8
2023-04-15T05:06:01.709Z,3.8
2023-04-15T05:07:01.315Z,3.9
2023-04-15T05:08:00.905Z,3.9
2023-04-15T05:09:01.566Z,3.9
2023-04-15T05:10:01.154Z,3.9
2023-04-15T05:11:01.716Z,4
2023-04-15T05:12:01.571Z,4
2023-04-15T05:13:00.887Z,4
2023-04-15T05:14:01.653Z,4
2023-04-15T05:15:01.122Z,4
2023-04-15T05:16:01.812Z,4
2023-04-15T05:17:01.438Z,4
2023-04-15T05:18:00.965Z,4
2023-04-15T05:19:01.688Z,4
2023-04-15T05:20:01.172Z,4
2023-04-15T05:21:01.757Z,4
2023-04-15T05:22:01.371Z,4.1
2023-04-15T05:23:00.925Z,4.1
2023-04-15T05:24:01.520Z,4.3
2023-04-15T05:25:01.124Z,4.3
2023-04-15T05:26:01.739Z,4.3
2023-04-15T05:27:01.378Z,4.4
2023-04-15T05:28:00.934Z,4.3
2023-04-15T05:29:01.802Z,4.4
2023-04-15T05:30:01.718Z,4.4
2023-04-15T05:31:01.332Z,4.4
2023-04-15T05:32:00.960Z,4.5
2023-04-15T05:33:01.526Z,4.5
2023-04-15T05:34:01.151Z,4.6
2023-04-15T05:35:01.762Z,4.7
2023-04-15T05:36:01.367Z,4.8
2023-04-15T05:37:00.941Z,4.7
2023-04-15T05:38:01.536Z,4.7
2023-04-15T05:39:01.343Z,4.7
2023-04-15T05:40:01.729Z,4.6
2023-04-15T05:41:01.342Z,4.7
2023-04-15T05:42:00.957Z,4.8
2023-04-15T05:43:01.500Z,4.9
2023-04-15T05:44:01.083Z,4.9
2023-04-15T05:45:01.733Z,4.9
2023-04-15T05:46:01.413Z,4.8
2023-04-15T05:47:00.908Z,4.8
2023-04-15T05:48:01.553Z,4.8
2023-04-15T05:49:01.305Z,4.9
2023-04-15T05:50:01.786Z,5
2023-04-15T05:51:01.433Z,5.1
2023-04-15T05:52:00.955Z,5.2
2023-04-15T05:53:01.543Z,5.1
2023-04-15T05:54:01.167Z,5.1
2023-04-15T05:55:01.726Z,5.1
2023-04-15T05:56:01.314Z,5.1
2023-04-15T05:57:00.896Z,5.1
2023-04-15T05:58:01.496Z,5.2
2023-04-15T05:59:01.240Z,5.3
2023-04-15T06:00:01.709Z,5.3
2023-04-15T06:01:01.333Z,5.3
2023-04-15T06:02:00.969Z,5.4
2023-04-15T06:03:01.566Z,5.4
2023-04-15T06:04:01.159Z,5.5
2023-04-15T06:05:01.803Z,5.4
2023-04-15T06:06:01.386Z,5.4
2023-04-15T06:07:01.033Z,5.5
2023-04-15T06:08:01.581Z,5.6
2023-04-15T06:09:01.368Z,5.7
2023-04-15T06:10:01.780Z,5.7
2023-04-15T06:11:01.381Z,5.8
2023-04-15T06:12:00.995Z,5.8
2023-04-15T06:13:01.557Z,5.9
2023-04-15T06:14:01.171Z,5.8
2023-04-15T06:15:01.726Z,5.9
2023-04-15T06:16:01.363Z,6
2023-04-15T06:17:00.944Z,6.1
2023-04-15T06:18:01.583Z,6.1
2023-04-15T06:19:01.288Z,6.2
2023-04-15T06:20:01.759Z,6.2
2023-04-15T06:21:01.368Z,6.3
2023-04-15T06:22:00.959Z,6.3
2023-04-15T06:23:01.513Z,6.3
2023-04-15T06:24:01.120Z,6.3
2023-04-15T06:25:01.710Z,6.4
2023-04-15T06:26:01.307Z,6.4
2023-04-15T06:27:00.878Z,6.4
2023-04-15T06:28:01.491Z,6.6
2023-04-15T06:29:01.195Z,6.5
2023-04-15T06:30:01.765Z,6.5
2023-04-15T06:31:01.344Z,6.5
2023-04-15T06:32:00.944Z,6.6
2023-04-15T06:33:01.523Z,6.7
2023-04-15T06:34:01.174Z,6.4
2023-04-15T06:35:01.750Z,6.5
2023-04-15T06:36:01.336Z,6.6
2023-04-15T06:37:00.919Z,6.5
2023-04-15T06:38:01.516Z,6.6
2023-04-15T06:39:01.331Z,6.6
2023-04-15T06:40:01.745Z,6.6
2023-04-15T06:41:01.346Z,6.5
2023-04-15T06:42:00.913Z,6.7
2023-04-15T06:43:01.518Z,6.6
2023-04-15T06:44:01.104Z,6.8
2023-04-15T06:45:01.722Z,6.9
2023-04-15T06:46:01.426Z,6.9
2023-04-15T06:47:00.929Z,7
2023-04-15T06:48:01.515Z,7
2023-04-15T06:49:01.204Z,7
2023-04-15T06:50:01.684Z,6.9
2023-04-15T06:51:01.325Z,7
2023-04-15T06:52:01.142Z,7.1
2023-04-15T06:53:01.472Z,7
2023-04-15T06:54:01.099Z,7.2
2023-04-15T06:55:01.721Z,7.2
2023-04-15T06:56:01.342Z,7.3
2023-04-15T06:57:00.906Z,7.4
2023-04-15T06:58:01.522Z,7.3
2023-04-15T06:59:01.257Z,7.3
2023-04-15T07:00:01.709Z,7.3
2023-04-15T07:01:01.342Z,7.2
2023-04-15T07:02:00.926Z,7.3
2023-04-15T07:03:01.540Z,7.4
2023-04-15T07:04:01.142Z,7.5
2023-04-15T07:05:01.729Z,7.4
2023-04-15T07:06:01.345Z,7.5
2023-04-15T07:07:00.967Z,7.6
2023-04-15T07:08:01.492Z,7.6
2023-04-15T07:09:01.276Z,7.6
2023-04-15T07:10:01.663Z,7.5
2023-04-15T07:11:01.303Z,7.5
2023-04-15T07:12:00.864Z,7.7
2023-04-15T07:13:01.454Z,7.7
2023-04-15T07:14:01.045Z,7.6
2023-04-15T07:15:01.651Z,7.7
2023-04-15T07:16:01.277Z,7.8
2023-04-15T07:17:01.857Z,7.9
2023-04-15T07:18:01.530Z,8
2023-04-15T07:19:01.339Z,8.1
2023-04-15T07:20:01.173Z,8.1
2023-04-15T07:21:01.782Z,8.1
2023-04-15T07:22:00.910Z,8.3
2023-04-15T07:23:01.480Z,8.4
2023-04-15T07:24:01.067Z,8.4
2023-04-15T07:25:01.676Z,8.3
2023-04-15T07:26:01.288Z,8.3
2023-04-15T07:27:01.448Z,8.3
2023-04-15T07:28:01.213Z,8.4
2023-04-15T07:29:01.904Z,8.5
2023-04-15T07:30:01.660Z,8.5
2023-04-15T07:31:01.128Z,8.7
2023-04-15T07:32:01.632Z,8.7
2023-04-15T07:33:01.313Z,8.7
2023-04-15T07:34:01.836Z,8.8
2023-04-15T07:35:01.451Z,8.8
2023-04-15T07:36:01.048Z,8.9
2023-04-15T07:37:01.633Z,9
2023-04-15T07:38:01.244Z,9
2023-04-15T07:39:01.951Z,9
2023-04-15T07:40:01.645Z,9
2023-04-15T07:41:01.053Z,9
2023-04-15T07:42:01.643Z,9
2023-04-15T07:43:01.238Z,8.8
2023-04-15T07:44:01.843Z,8.8
2023-04-15T07:45:01.465Z,8.9
2023-04-15T07:46:01.075Z,8.9
2023-04-15T07:47:01.638Z,8.8
2023-04-15T07:48:01.251Z,8.7
2023-04-15T07:49:02.083Z,8.9
2023-04-15T07:50:00.974Z,9
2023-04-15T07:51:01.574Z,9.1
2023-04-15T07:52:01.175Z,9.2
2023-04-15T07:53:01.755Z,9.1
2023-04-15T07:54:01.368Z,9.1
2023-04-15T07:55:00.932Z,9.3
2023-04-15T07:56:01.543Z,9.4
2023-04-15T07:57:01.131Z,9.4
2023-04-15T07:58:01.724Z,9.5
2023-04-15T07:59:01.508Z,9.6
2023-04-15T08:00:00.915Z,9.7
2023-04-15T08:01:01.498Z,9.7
2023-04-15T08:02:01.129Z,9.7
2023-04-15T08:03:01.897Z,9.7
2023-04-15T08:04:01.386Z,9.7
2023-04-15T08:05:00.912Z,9.7
2023-04-15T08:06:01.517Z,9.8
2023-04-15T08:07:01.136Z,9.7
2023-04-15T08:08:01.751Z,9.9
2023-04-15T08:09:01.509Z,10
2023-04-15T08:10:00.954Z,10
2023-04-15T08:11:01.516Z,10.2
2023-04-15T08:12:01.116Z,10.4
2023-04-15T08:13:01.689Z,10.3
2023-04-15T08:14:01.280Z,10.2
2023-04-15T08:15:00.869Z,10.2
2023-04-15T08:16:01.511Z,10.1
2023-04-15T08:17:01.126Z,10.2
2023-04-15T08:18:01.711Z,10.1
2023-04-15T08:19:01.527Z,10.1
2023-04-15T08:20:00.892Z,10.1
2023-04-15T08:21:01.472Z,10.3
2023-04-15T08:22:01.103Z,10.1
2023-04-15T08:23:01.659Z,9.9
2023-04-15T08:24:01.243Z,9.8
2023-04-15T08:25:01.829Z,9.9
2023-04-15T08:26:01.445Z,10
2023-04-15T08:27:01.070Z,9.9
2023-04-15T08:28:01.108Z,9.8
2023-04-15T08:29:01.968Z,9.8
2023-04-15T08:30:02.817Z,9.7
2023-04-15T08:31:01.492Z,9.7
2023-04-15T08:32:01.115Z,9.8
2023-04-15T08:33:01.715Z,9.9
2023-04-15T08:34:01.320Z,9.9
2023-04-15T08:35:00.921Z,10
2023-04-15T08:36:01.492Z,9.8
2023-04-15T08:37:01.078Z,9.8
2023-04-15T08:38:01.708Z,9.9
2023-04-15T08:39:01.558Z,10
2023-04-15T08:40:00.870Z,10.1
2023-04-15T08:41:01.480Z,10.2
2023-04-15T08:42:01.064Z,10.4
2023-04-15T08:43:01.681Z,10.4
2023-04-15T08:44:01.335Z,10.3
2023-04-15T08:45:00.879Z,10.1
2023-04-15T08:46:01.461Z,10.1
2023-04-15T08:47:01.069Z,10.1
2023-04-15T08:48:01.699Z,9.9
2023-04-15T08:49:01.479Z,10.1
2023-04-15T08:50:00.870Z,10
2023-04-15T08:51:01.446Z,10.2
2023-04-15T08:52:01.062Z,10
2023-04-15T08:53:01.618Z,10
2023-04-15T08:54:01.234Z,9.7
2023-04-15T08:55:01.797Z,9.8
2023-04-15T08:56:01.392Z,10
2023-04-15T08:57:00.998Z,10.2
2023-04-15T08:58:01.598Z,10.3
2023-04-15T08:59:01.334Z,10.3
2023-04-15T09:00:02.954Z,10.2
2023-04-15T09:01:01.807Z,10.3
2023-04-15T09:02:01.086Z,10
2023-04-15T09:03:01.674Z,9.9
2023-04-15T09:04:01.289Z,9.8
2023-04-15T09:05:01.909Z,9.8
2023-04-15T09:06:01.509Z,9.9
2023-04-15T09:07:01.100Z,9.9
2023-04-15T09:08:01.749Z,10
2023-04-15T09:09:01.619Z,10
2023-04-15T09:10:00.963Z,10
2023-04-15T09:11:01.511Z,10
2023-04-15T09:12:01.095Z,9.9
2023-04-15T09:13:01.700Z,9.8
2023-04-15T09:14:01.298Z,9.7
2023-04-15T09:15:00.893Z,9.9
2023-04-15T09:16:01.499Z,9.8
2023-04-15T09:17:01.213Z,9.7
2023-04-15T09:18:01.738Z,9.7
2023-04-15T09:19:01.415Z,9.6
2023-04-15T09:20:00.960Z,9.7
2023-04-15T09:21:01.553Z,9.8
2023-04-15T09:22:01.181Z,9.8
2023-04-15T09:23:01.758Z,9.7
2023-04-15T09:24:01.684Z,9.7
2023-04-15T09:25:01.541Z,9.8
2023-04-15T09:26:01.162Z,9.7
2023-04-15T09:27:01.759Z,9.6
2023-04-15T09:28:01.353Z,9.6
2023-04-15T09:29:00.934Z,9.5
2023-04-15T09:30:01.538Z,9.6
2023-04-15T09:31:01.250Z,9.7
2023-04-15T09:32:01.709Z,9.7
2023-04-15T09:33:01.337Z,9.9
2023-04-15T09:34:01.097Z,10.1
2023-04-15T09:35:01.486Z,10.3
2023-04-15T09:36:01.074Z,10.3
2023-04-15T09:37:01.664Z,10.4
2023-04-15T09:38:01.298Z,10.5
2023-04-15T09:39:00.871Z,10.6
2023-04-15T09:40:01.429Z,10.4
2023-04-15T09:41:01.023Z,10.3
2023-04-15T09:42:01.718Z,10.2
2023-04-15T09:43:01.290Z,10.2
2023-04-15T09:44:02.038Z,10.1
2023-04-15T09:45:01.780Z,10.2
2023-04-15T09:46:01.111Z,10.1
2023-04-15T09:47:01.669Z,10.1
2023-04-15T09:48:01.302Z,10.1
2023-04-15T09:49:01.855Z,10.1
2023-04-15T09:50:01.584Z,9.8
2023-04-15T09:51:01.083Z,9.8
2023-04-15T09:52:05.438Z,9.8
2023-04-15T09:53:01.217Z,9.8
2023-04-15T09:54:01.971Z,9.9
2023-04-15T09:55:01.691Z,9.8
2023-04-15T09:56:01.037Z,9.8
2023-04-15T09:57:01.624Z,9.8
2023-04-15T09:58:01.248Z,9.7
2023-04-15T09:59:01.806Z,9.5
2023-04-15T10:00:01.420Z,9.4
2023-04-15T10:01:01.041Z,9.3
2023-04-15T10:02:01.629Z,9.4
2023-04-15T10:03:01.314Z,9.4
2023-04-15T10:04:02.070Z,9.5
2023-04-15T10:05:00.934Z,9.5
2023-04-15T10:06:01.544Z,9.7
2023-04-15T10:07:01.676Z,9.7
2023-04-15T10:08:01.301Z,9.7
2023-04-15T10:09:00.940Z,9.9
2023-04-15T10:10:01.522Z,9.9
2023-04-15T10:11:01.154Z,9.7
2023-04-15T10:12:01.722Z,9.5
2023-04-15T10:13:01.314Z,9.4
2023-04-15T10:14:01.169Z,9.4
2023-04-15T10:15:01.482Z,9.5
2023-04-15T10:16:01.094Z,9.7
2023-04-15T10:17:01.641Z,9.7
2023-04-15T10:18:01.255Z,9.9
2023-04-15T10:19:01.819Z,9.9
2023-04-15T10:20:01.438Z,10
2023-04-15T10:21:01.065Z,9.9
2023-04-15T10:22:01.635Z,9.7
2023-04-15T10:23:01.228Z,9.6
2023-04-15T10:24:02.006Z,9.6
2023-04-15T10:25:01.786Z,9.5
2023-04-15T10:26:01.070Z,9.5
2023-04-15T10:27:01.651Z,9.5
2023-04-15T10:28:01.299Z,9.5
2023-04-15T10:29:00.885Z,9.4
2023-04-15T10:30:01.480Z,9.3
2023-04-15T10:31:01.098Z,9.3
2023-04-15T10:32:01.649Z,9.4
2023-04-15T10:33:01.246Z,9.3
2023-04-15T10:34:01.972Z,9.4
2023-04-15T10:35:01.747Z,9.4
2023-04-15T10:36:01.050Z,9.4
2023-04-15T10:37:01.626Z,9.4
2023-04-15T10:38:01.223Z,9.4
2023-04-15T10:39:01.809Z,9.5
2023-04-15T10:40:01.403Z,9.5
2023-04-15T10:41:01.009Z,9.5
2023-04-15T10:42:01.574Z,9.5
2023-04-15T10:43:01.157Z,9.5
2023-04-15T10:44:02.049Z,9.6
2023-04-15T10:45:01.424Z,9.6
2023-04-15T10:46:01.016Z,9.5
2023-04-15T10:47:01.618Z,9.5
2023-04-15T10:48:03.405Z,9.6
2023-04-15T10:49:01.759Z,9.6
2023-04-15T10:50:01.369Z,9.6
2023-04-15T10:51:00.967Z,9.6
2023-04-15T10:52:01.546Z,9.7
2023-04-15T10:53:01.141Z,9.6
2023-04-15T10:54:01.743Z,9.6
2023-04-15T10:55:01.411Z,9.6
2023-04-15T10:56:00.992Z,9.5
2023-04-15T10:57:01.600Z,9.6
2023-04-15T10:58:01.197Z,9.7
2023-04-15T10:59:01.788Z,9.7
2023-04-15T11:00:01.395Z,9.7
2023-04-15T11:01:01.018Z,9.7
2023-04-15T11:02:01.672Z,9.7
2023-04-15T11:03:01.291Z,9.5
2023-04-15T11:04:02.156Z,9.5
2023-04-15T11:05:01.119Z,9.6
2023-04-15T11:06:01.771Z,9.8
2023-04-15T11:07:01.359Z,9.8
2023-04-15T11:08:00.945Z,9.9
2023-04-15T11:09:01.550Z,9.7
2023-04-15T11:10:01.206Z,9.7
2023-04-15T11:11:01.793Z,9.7
2023-04-15T11:12:01.398Z,9.7
2023-04-15T11:13:00.972Z,9.6
2023-04-15T11:14:01.799Z,9.6
2023-04-15T11:15:01.201Z,9.6
2023-04-15T11:16:02.139Z,9.5
2023-04-15T11:17:00.918Z,9.4
2023-04-15T11:18:01.573Z,9.4
2023-04-15T11:19:01.196Z,9.4
2023-04-15T11:20:01.885Z,9.4
2023-04-15T11:21:01.558Z,9.4
2023-04-15T11:22:01.028Z,9.3
2023-04-15T11:23:08.521Z,9.4
2023-04-15T11:24:02.253Z,9.4
2023-04-15T11:25:01.483Z,9.4
2023-04-15T11:26:01.069Z,9.4
2023-04-15T11:27:01.717Z,9.4
2023-04-15T11:28:01.315Z,9.4
2023-04-15T11:29:00.893Z,9.5
2023-04-15T11:30:01.496Z,9.5
2023-04-15T11:31:01.125Z,9.5
2023-04-15T11:32:01.728Z,9.5
2023-04-15T11:33:01.455Z,9.5
2023-04-15T11:34:00.948Z,9.5
2023-04-15T11:35:01.562Z,9.6
2023-04-15T11:36:01.170Z,9.6
2023-04-15T11:37:01.749Z,9.6
2023-04-15T11:38:01.356Z,9.6
2023-04-15T11:39:00.936Z,9.7
2023-04-15T11:40:01.491Z,9.7
2023-04-15T11:41:01.086Z,9.6
2023-04-15T11:42:01.703Z,9.6
2023-04-15T11:43:01.391Z,9.6
2023-04-15T11:44:01.011Z,9.7
2023-04-15T11:45:01.491Z,9.7
2023-04-15T11:46:01.204Z,9.7
2023-04-15T11:47:01.673Z,9.6
2023-04-15T11:48:01.347Z,9.7
2023-04-15T11:49:01.855Z,9.6
2023-04-15T11:50:01.489Z,9.7
2023-04-15T11:51:01.082Z,9.6
2023-04-15T11:52:01.678Z,9.7
2023-04-15T11:53:01.303Z,9.8
2023-04-15T11:54:01.969Z,9.7
2023-04-15T11:55:01.742Z,9.7
2023-04-15T11:56:01.092Z,9.7
2023-04-15T11:57:01.691Z,9.8
2023-04-15T11:58:01.354Z,9.8
2023-04-15T11:59:00.924Z,9.8
2023-04-15T12:00:01.497Z,9.8
2023-04-15T12:01:01.113Z,9.7
2023-04-15T12:02:01.816Z,9.7
2023-04-15T12:03:01.435Z,9.7
2023-04-15T12:04:01.061Z,9.7
2023-04-15T12:05:01.547Z,9.7
2023-04-15T12:06:01.166Z,9.7
2023-04-15T12:07:01.713Z,9.6
2023-04-15T12:08:01.299Z,9.7
2023-04-15T12:09:00.894Z,9.7
2023-04-15T12:10:01.445Z,9.8
2023-04-15T12:11:01.090Z,9.8
2023-04-15T12:12:01.623Z,9.9
2023-04-15T12:13:01.247Z,10
2023-04-15T12:14:02.195Z,10.1
2023-04-15T12:15:00.933Z,10.1
2023-04-15T12:16:01.539Z,10
2023-04-15T12:17:01.175Z,10.2
2023-04-15T12:18:01.792Z,10.2
2023-04-15T12:19:01.319Z,10.2
2023-04-15T12:20:00.995Z,10.1
2023-04-15T12:21:01.584Z,10.1
2023-04-15T12:22:01.713Z,10
2023-04-15T12:23:01.312Z,9.9
2023-04-15T12:24:00.916Z,9.8
2023-04-15T12:25:01.502Z,9.8
2023-04-15T12:26:01.114Z,9.7
2023-04-15T12:27:01.673Z,9.7
2023-04-15T12:28:01.266Z,9.7
2023-04-15T12:29:01.930Z,9.8
2023-04-15T12:30:01.567Z,9.7
2023-04-15T12:31:01.145Z,9.8
2023-04-15T12:32:01.671Z,9.8
2023-04-15T12:33:01.301Z,9.8
2023-04-15T12:34:00.894Z,9.8
2023-04-15T12:35:01.452Z,9.9
2023-04-15T12:36:01.055Z,9.9
2023-04-15T12:37:01.656Z,9.8
2023-04-15T12:38:01.294Z,9.8
2023-04-15T12:39:01.838Z,9.8
2023-04-15T12:40:01.455Z,9.8
2023-04-15T12:41:01.050Z,9.9
2023-04-15T12:42:01.702Z,9.8
2023-04-15T12:43:01.282Z,9.8
2023-04-15T12:44:00.891Z,9.8
2023-04-15T12:45:01.443Z,9.9
2023-04-15T12:46:01.038Z,9.9
2023-04-15T12:47:01.668Z,9.9
2023-04-15T12:48:01.293Z,9.9
2023-04-15T12:49:01.862Z,9.9
2023-04-15T12:50:01.447Z,9.8
2023-04-15T12:51:01.045Z,9.8
2023-04-15T12:52:01.642Z,9.8
2023-04-15T12:53:01.227Z,9.8
2023-04-15T12:54:01.841Z,9.8
2023-04-15T12:55:01.448Z,9.8
2023-04-15T12:56:01.035Z,9.8
2023-04-15T12:57:02.197Z,9.8
2023-04-15T12:58:00.990Z,9.9
2023-04-15T12:59:01.596Z,10
2023-04-15T13:00:01.213Z,9.9
2023-04-15T13:01:01.797Z,10
2023-04-15T13:02:01.419Z,10
2023-04-15T13:03:01.100Z,9.8
2023-04-15T13:04:01.656Z,9.9
2023-04-15T13:05:01.294Z,10
2023-04-15T13:06:01.895Z,10.1
2023-04-15T13:07:01.593Z,10.2
2023-04-15T13:08:01.110Z,10.1
2023-04-15T13:09:01.908Z,10.1
2023-04-15T13:10:01.278Z,10.2
2023-04-15T13:11:00.940Z,10.2
2023-04-15T13:12:01.502Z,10.3
2023-04-15T13:13:01.140Z,10.2
2023-04-15T13:14:01.920Z,10.2
2023-04-15T13:15:01.792Z,10.2
2023-04-15T13:16:01.031Z,10.2
2023-04-15T13:17:01.539Z,10.2
2023-04-15T13:18:01.193Z,10.3
2023-04-15T13:19:01.738Z,10.3
2023-04-15T13:20:01.420Z,10.2
2023-04-15T13:21:00.919Z,10.2
2023-04-15T13:22:01.490Z,10.1
2023-04-15T13:23:01.113Z,10
2023-04-15T13:24:01.706Z,9.9
2023-04-15T13:25:01.317Z,9.8
2023-04-15T13:26:00.905Z,9.8
2023-04-15T13:27:01.470Z,9.8
2023-04-15T13:28:01.089Z,9.8
2023-04-15T13:29:01.643Z,9.8
2023-04-15T13:30:01.263Z,9.8
2023-04-15T13:31:01.826Z,9.8
2023-04-15T13:32:01.532Z,9.9
2023-04-15T13:33:01.058Z,9.8
2023-04-15T13:34:01.666Z,9.8
2023-04-15T13:35:01.280Z,9.9
2023-04-15T13:36:01.836Z,9.9
2023-04-15T13:37:01.457Z,9.9
2023-04-15T13:38:01.050Z,10
2023-04-15T13:39:01.631Z,9.9
2023-04-15T13:40:01.219Z,9.9
2023-04-15T13:41:01.794Z,9.8
2023-04-15T13:42:01.426Z,9.8
2023-04-15T13:43:01.024Z,9.8
2023-04-15T13:44:01.661Z,9.8
2023-04-15T13:45:01.242Z,9.8
2023-04-15T13:46:01.904Z,9.9
2023-04-15T13:47:01.600Z,9.9
2023-04-15T13:48:01.171Z,10
2023-04-15T13:49:01.654Z,9.9